createdAt,value
2018-03-21T00:02:07.974Z,55.80
2018-03-21T00:04:36.298Z,55.90
2018-03-21T00:07:04.014Z,55.90
2018-03-21T00:09:32.361Z,54.50
2018-03-21T00:11:59.917Z,54.50
2018-03-21T00:14:27.703Z,55.20
2018-03-21T00:16:55.264Z,54.70
2018-03-21T00:19:22.838Z,54.30
2018-03-21T00:21:50.440Z,50.50
2018-03-21T00:24:17.990Z,51.70
2018-03-21T00:26:45.558Z,52.30
2018-03-21T00:29:13.150Z,48.80
2018-03-21T00:31:40.808Z,46.30
2018-03-21T00:34:08.359Z,45.50
2018-03-21T00:36:35.963Z,46.40
2018-03-21T00:39:03.527Z,46.30
2018-03-21T00:41:31.088Z,45.50
2018-03-21T00:43:58.701Z,45.50
2018-03-21T00:46:26.374Z,44.70
2018-03-21T00:48:54.121Z,41.70
2018-03-21T00:51:21.671Z,42.10
2018-03-21T00:53:49.383Z,42.30
2018-03-21T00:56:18.062Z,40.90
2018-03-21T00:58:45.628Z,41.20
2018-03-21T01:01:13.203Z,41.30
2018-03-21T01:03:41.662Z,40.60
2018-03-21T01:06:09.736Z,40.50
2018-03-21T01:08:37.334Z,40.20
2018-03-21T01:11:04.893Z,40.10
2018-03-21T01:13:33.280Z,40.30
2018-03-21T01:16:00.874Z,40.20
2018-03-21T01:18:28.430Z,38.70
2018-03-21T01:20:55.997Z,40.50
2018-03-21T01:23:23.579Z,36.90
2018-03-21T01:25:51.134Z,38.00
2018-03-21T01:28:18.692Z,37.50
2018-03-21T01:30:47.190Z,39.20
2018-03-21T01:33:15.511Z,35.00
2018-03-21T01:35:43.065Z,35.20
2018-03-21T01:38:10.639Z,35.90
2018-03-21T01:40:38.198Z,36.70
2018-03-21T01:43:05.758Z,36.30
2018-03-21T01:45:33.466Z,35.90
2018-03-21T01:48:01.021Z,35.50
2018-03-21T01:50:28.582Z,36.30
2018-03-21T01:53:08.426Z,36.10
2018-03-21T01:55:36.049Z,35.50
2018-03-21T01:58:03.632Z,36.00
2018-03-21T02:00:31.417Z,37.10
2018-03-21T02:02:58.975Z,37.60
2018-03-21T02:05:26.523Z,37.00
2018-03-21T02:07:54.455Z,36.40
2018-03-21T02:10:22.019Z,36.80
2018-03-21T02:12:49.573Z,37.10
2018-03-21T02:15:17.189Z,36.90
2018-03-21T02:17:45.519Z,37.60
2018-03-21T02:20:13.084Z,37.50
2018-03-21T02:22:40.818Z,37.40
2018-03-21T02:25:08.377Z,37.80
2018-03-21T02:27:35.943Z,37.80
2018-03-21T02:30:03.758Z,38.30
2018-03-21T02:32:31.318Z,39.60
2018-03-21T02:34:58.871Z,38.40
2018-03-21T02:37:26.955Z,38.60
2018-03-21T02:39:54.524Z,39.00
2018-03-21T02:42:22.079Z,39.00
2018-03-21T02:44:49.683Z,39.50
2018-03-21T02:47:17.250Z,38.70
2018-03-21T02:49:44.813Z,39.10
2018-03-21T02:52:12.506Z,39.90
2018-03-21T02:54:40.075Z,40.90
2018-03-21T02:57:07.621Z,40.40
2018-03-21T02:59:35.665Z,40.20
2018-03-21T03:02:03.226Z,40.60
2018-03-21T03:04:30.788Z,40.80
2018-03-21T03:06:58.702Z,40.30
2018-03-21T03:09:27.077Z,41.10
2018-03-21T03:11:54.866Z,41.10
2018-03-21T03:14:23.537Z,41.30
2018-03-21T03:16:51.851Z,42.50
2018-03-21T03:19:19.406Z,42.40
2018-03-21T03:21:47.106Z,41.70
2018-03-21T03:24:14.657Z,42.20
2018-03-21T03:26:42.210Z,42.90
2018-03-21T03:29:09.898Z,42.10
2018-03-21T03:31:37.451Z,42.50
2018-03-21T03:34:04.998Z,42.60
2018-03-21T03:36:32.893Z,42.60
2018-03-21T03:39:00.463Z,42.80
2018-03-21T03:41:28.785Z,43.10
2018-03-21T03:43:56.559Z,43.10
2018-03-21T03:46:24.108Z,44.00
2018-03-21T03:48:51.673Z,44.10
2018-03-21T03:51:19.402Z,43.50
2018-03-21T03:53:46.970Z,43.60
2018-03-21T03:56:14.543Z,43.80
2018-03-21T03:58:42.450Z,43.40
2018-03-21T04:01:10.001Z,44.20
2018-03-21T04:03:37.609Z,43.80
2018-03-21T04:06:05.172Z,44.20
2018-03-21T04:08:32.725Z,44.80
2018-03-21T04:11:00.418Z,44.70
2018-03-21T04:13:28.233Z,44.80
2018-03-21T04:15:56.556Z,45.30
2018-03-21T04:18:24.118Z,45.10
2018-03-21T04:20:51.733Z,45.50
2018-03-21T04:23:19.294Z,46.10
2018-03-21T04:25:47.614Z,46.00
2018-03-21T04:28:15.602Z,45.70
2018-03-21T04:30:43.345Z,46.20
2018-03-21T04:33:10.906Z,46.20
2018-03-21T04:35:38.604Z,46.30
2018-03-21T04:38:06.936Z,47.40
2018-03-21T04:40:34.504Z,46.80
2018-03-21T04:43:02.513Z,46.90
2018-03-21T04:45:30.071Z,46.70
2018-03-21T04:47:57.646Z,46.90
2018-03-21T04:50:25.261Z,46.40
2018-03-21T04:52:52.824Z,46.60
2018-03-21T04:55:20.391Z,47.40
2018-03-21T04:57:48.375Z,46.80
2018-03-21T05:00:15.967Z,47.30
2018-03-21T05:02:43.523Z,47.20
2018-03-21T05:05:11.993Z,47.30
2018-03-21T05:07:39.567Z,47.20
2018-03-21T05:10:07.126Z,48.00
2018-03-21T05:12:35.523Z,47.80
2018-03-21T05:15:03.134Z,47.80
2018-03-21T05:17:30.688Z,47.50
2018-03-21T05:19:58.239Z,48.10
2018-03-21T05:22:26.021Z,47.80
2018-03-21T05:24:53.587Z,48.60
2018-03-21T05:27:23.062Z,48.20
2018-03-21T05:29:50.606Z,48.20
2018-03-21T05:32:18.157Z,48.80
2018-03-21T05:34:45.995Z,48.70
2018-03-21T05:37:14.315Z,48.90
2018-03-21T05:39:41.882Z,48.80
2018-03-21T05:42:09.798Z,49.80
2018-03-21T05:44:38.118Z,49.20
2018-03-21T05:47:05.713Z,49.10
2018-03-21T05:49:33.325Z,48.90
2018-03-21T05:52:00.887Z,49.40
2018-03-21T05:54:28.435Z,48.70
2018-03-21T05:56:56.250Z,48.90
2018-03-21T05:59:23.794Z,49.20
2018-03-21T06:01:51.342Z,49.30
2018-03-21T06:04:19.405Z,50.00
2018-03-21T06:06:46.958Z,49.50
2018-03-21T06:09:14.513Z,49.50
2018-03-21T06:11:42.340Z,49.90
2018-03-21T06:14:09.897Z,50.30
2018-03-21T06:16:37.483Z,49.80
2018-03-21T06:19:06.334Z,50.80
2018-03-21T06:21:33.889Z,50.80
2018-03-21T06:24:01.435Z,50.90
2018-03-21T06:26:29.581Z,51.20
2018-03-21T06:28:57.889Z,50.80
2018-03-21T06:31:25.489Z,51.00
2018-03-21T06:33:53.325Z,51.30
2018-03-21T06:36:20.873Z,51.70
2018-03-21T06:38:48.422Z,52.20
2018-03-21T06:41:16.046Z,52.50
2018-03-21T06:43:43.599Z,53.10
2018-03-21T06:46:12.243Z,52.90
2018-03-21T06:48:39.797Z,52.90
2018-03-21T06:51:07.360Z,52.90
2018-03-21T06:53:35.255Z,53.00
2018-03-21T06:56:02.958Z,52.60
2018-03-21T06:58:30.517Z,52.60
2018-03-21T07:00:58.131Z,52.90
2018-03-21T07:03:26.482Z,51.90
2018-03-21T07:05:54.046Z,51.90
2018-03-21T07:08:21.835Z,51.90
2018-03-21T07:10:49.392Z,51.50
2018-03-21T07:13:16.947Z,51.90
2018-03-21T07:15:56.718Z,51.40
2018-03-21T07:18:25.053Z,51.50
2018-03-21T07:20:52.594Z,51.50
2018-03-21T07:23:20.494Z,51.10
2018-03-21T07:25:48.066Z,50.60
2018-03-21T07:28:15.630Z,50.90
2018-03-21T07:30:43.743Z,50.30
2018-03-21T07:33:11.303Z,50.50
2018-03-21T07:35:39.216Z,50.40
2018-03-21T07:38:06.772Z,50.30
2018-03-21T07:40:34.325Z,49.60
2018-03-21T07:43:02.060Z,49.60
2018-03-21T07:45:29.645Z,49.10
2018-03-21T07:47:57.194Z,49.30
2018-03-21T07:50:24.810Z,48.80
2018-03-21T07:52:53.122Z,48.60
2018-03-21T07:55:20.682Z,48.60
2018-03-21T07:57:48.477Z,48.10
2018-03-21T08:00:16.964Z,48.40
2018-03-21T08:02:44.506Z,48.10
2018-03-21T08:05:12.194Z,48.60
2018-03-21T08:07:39.734Z,47.40
2018-03-21T08:10:07.283Z,47.50
2018-03-21T08:12:34.878Z,47.40
2018-03-21T08:15:02.433Z,47.30
2018-03-21T08:17:29.977Z,47.50
2018-03-21T08:19:57.583Z,47.20
2018-03-21T08:22:25.238Z,46.90
2018-03-21T08:24:52.829Z,47.60
2018-03-21T08:27:20.722Z,46.10
2018-03-21T08:29:48.275Z,45.80
2018-03-21T08:32:15.818Z,46.10
2018-03-21T08:34:43.386Z,45.70
2018-03-21T08:37:10.933Z,46.10
2018-03-21T08:39:38.578Z,46.80
2018-03-21T08:42:06.260Z,46.40
2018-03-21T08:44:33.818Z,44.50
2018-03-21T08:47:01.362Z,44.90
2018-03-21T08:49:29.679Z,44.90
2018-03-21T08:51:57.226Z,45.50
2018-03-21T08:54:24.770Z,44.70
2018-03-21T08:56:52.457Z,44.00
2018-03-21T08:59:20.005Z,44.70
2018-03-21T09:01:47.575Z,44.00
2018-03-21T09:04:15.447Z,44.20
2018-03-21T09:26:54.103Z,42.80
2018-03-21T09:29:21.660Z,42.80
2018-03-21T09:31:49.205Z,42.30
2018-03-21T09:34:16.778Z,42.50
2018-03-21T09:36:44.334Z,42.30
2018-03-21T09:39:11.874Z,42.40
2018-03-21T09:41:39.486Z,41.80
2018-03-21T09:44:07.906Z,42.80
2018-03-21T09:46:35.449Z,42.80
2018-03-21T09:49:03.196Z,41.00
2018-03-21T09:51:30.784Z,41.20
2018-03-21T09:53:58.336Z,41.10
2018-03-21T09:56:26.036Z,41.00
2018-03-21T09:58:53.586Z,41.20
2018-03-21T10:01:21.129Z,41.40
2018-03-21T10:03:49.021Z,41.60
2018-03-21T10:06:16.619Z,40.40
2018-03-21T10:08:44.145Z,40.20
2018-03-21T10:11:12.682Z,40.20
2018-03-21T10:13:40.226Z,40.20
2018-03-21T10:16:07.978Z,39.60
2018-03-21T10:18:36.316Z,39.50
2018-03-21T10:21:03.864Z,39.40
2018-03-21T10:23:31.463Z,38.60
2018-03-21T10:25:59.411Z,38.90
2018-03-21T10:28:26.955Z,38.80
2018-03-21T10:30:54.500Z,39.30
2018-03-21T10:33:22.420Z,37.80
2018-03-21T10:35:50.010Z,36.70
2018-03-21T10:38:17.575Z,38.00
2018-03-21T10:40:45.168Z,38.30
2018-03-21T10:43:13.618Z,37.20
2018-03-21T10:45:41.181Z,37.20
2018-03-21T10:48:08.790Z,38.10
2018-03-21T10:50:37.873Z,36.40
2018-03-21T10:53:05.414Z,36.30
2018-03-21T10:55:33.006Z,36.90
2018-03-21T10:58:00.555Z,35.60
2018-03-21T11:00:28.105Z,36.60
2018-03-21T11:03:01.720Z,36.60
2018-03-21T11:05:29.265Z,36.20
2018-03-21T11:07:56.809Z,35.90
2018-03-21T11:10:24.401Z,36.10
2018-03-21T11:12:51.969Z,35.80
2018-03-21T11:15:19.875Z,35.90
2018-03-21T11:17:47.657Z,35.50
2018-03-21T11:20:15.197Z,35.50
2018-03-21T11:22:43.001Z,34.50
2018-03-21T11:25:10.883Z,34.20
2018-03-21T11:27:39.196Z,35.00
2018-03-21T11:30:07.509Z,34.70
2018-03-21T11:32:35.538Z,34.70
2018-03-21T11:35:04.125Z,34.60
2018-03-21T11:37:31.678Z,34.50
2018-03-21T11:39:59.983Z,34.00
2018-03-21T11:42:27.805Z,34.00
2018-03-21T11:44:55.903Z,34.70
2018-03-21T11:47:24.213Z,34.20
2018-03-21T11:49:51.774Z,34.10
2018-03-21T11:52:19.899Z,31.80
2018-03-21T11:54:48.211Z,32.40
2018-03-21T11:57:15.824Z,32.40
2018-03-21T11:59:43.378Z,32.00
2018-03-21T12:02:10.934Z,33.50
2018-03-21T12:04:38.796Z,34.10
2018-03-21T12:07:06.339Z,33.40
2018-03-21T12:09:33.878Z,32.30
2018-03-21T12:12:01.775Z,34.50
2018-03-21T12:14:29.330Z,33.10
2018-03-21T12:16:57.389Z,32.20
2018-03-21T12:19:24.941Z,32.70
2018-03-21T12:21:52.481Z,32.00
2018-03-21T12:24:20.059Z,31.50
2018-03-21T12:26:47.626Z,30.90
2018-03-21T12:29:15.172Z,30.50
2018-03-21T12:31:43.017Z,31.00
2018-03-21T12:34:10.595Z,29.60
2018-03-21T12:36:38.146Z,27.70
2018-03-21T12:39:05.849Z,27.10
2018-03-21T12:41:33.397Z,26.90
2018-03-21T12:44:00.940Z,26.90
2018-03-21T12:46:28.831Z,26.90
2018-03-21T12:48:56.369Z,26.80
2018-03-21T12:51:23.918Z,27.60
2018-03-21T12:53:51.685Z,26.40
2018-03-21T12:56:19.328Z,25.10
2018-03-21T12:58:46.804Z,25.70
2018-03-21T13:01:14.405Z,26.30
2018-03-21T13:03:41.955Z,26.50
2018-03-21T13:06:09.506Z,24.80
2018-03-21T13:08:37.219Z,25.30
2018-03-21T13:11:05.538Z,23.90
2018-03-21T13:13:33.102Z,23.80
2018-03-21T13:16:00.989Z,24.20
2018-03-21T13:18:28.549Z,23.70
2018-03-21T13:20:56.094Z,24.30
2018-03-21T13:23:23.963Z,24.30
2018-03-21T13:25:51.501Z,23.90
2018-03-21T13:28:19.051Z,24.90
2018-03-21T13:30:46.738Z,25.30
2018-03-21T13:33:14.285Z,22.90
2018-03-21T13:35:42.088Z,24.30
2018-03-21T13:38:09.693Z,22.90
2018-03-21T13:40:37.300Z,23.40
2018-03-21T13:43:05.266Z,23.20
2018-03-21T13:45:32.837Z,22.30
2018-03-21T13:48:01.909Z,22.60
2018-03-21T13:50:29.885Z,22.50
2018-03-21T13:52:57.451Z,24.10
2018-03-21T13:55:25.033Z,21.20
2018-03-21T13:57:53.362Z,23.00
2018-03-21T14:00:20.901Z,23.00
2018-03-21T14:02:48.798Z,23.60
2018-03-21T14:05:16.359Z,22.50
2018-03-21T14:07:43.918Z,23.00
2018-03-21T14:10:12.332Z,22.60
2018-03-21T14:12:39.995Z,24.20
2018-03-21T14:15:07.942Z,24.90
2018-03-21T14:17:35.489Z,25.50
2018-03-21T14:20:03.037Z,27.00
2018-03-21T14:22:30.608Z,25.80
2018-03-21T14:24:58.156Z,25.40
2018-03-21T14:27:25.712Z,25.90
2018-03-21T14:29:53.306Z,27.20
2018-03-21T14:32:20.858Z,27.30
2018-03-21T14:34:48.437Z,27.50
2018-03-21T14:37:16.034Z,26.20
2018-03-21T14:39:43.603Z,25.70
2018-03-21T14:42:11.165Z,27.10
2018-03-21T14:44:38.736Z,26.90
2018-03-21T14:47:06.413Z,26.90
2018-03-21T14:49:34.014Z,26.80
2018-03-21T14:52:01.535Z,27.80
2018-03-21T14:54:29.280Z,26.80
2018-03-21T14:56:56.826Z,27.80
2018-03-21T14:59:24.369Z,28.40
2018-03-21T15:01:52.302Z,26.80
2018-03-21T15:04:19.851Z,27.40
2018-03-21T15:06:47.586Z,27.40
2018-03-21T15:09:15.322Z,27.50
2018-03-21T15:11:43.730Z,28.90
2018-03-21T15:14:11.283Z,28.90
2018-03-21T15:16:39.092Z,28.40
2018-03-21T15:19:06.694Z,30.40
2018-03-21T15:21:34.234Z,31.70
2018-03-21T15:24:02.679Z,32.80
2018-03-21T15:26:30.547Z,32.80
2018-03-21T15:28:58.119Z,31.60
2018-03-21T15:31:25.669Z,32.60
2018-03-21T15:33:53.264Z,34.10
2018-03-21T15:36:21.173Z,33.90
2018-03-21T15:38:48.723Z,34.60
2018-03-21T15:41:16.406Z,35.30
2018-03-21T15:43:43.959Z,34.50
2018-03-21T15:46:11.498Z,34.70
2018-03-21T15:48:39.089Z,34.50
2018-03-21T15:51:06.683Z,35.00
2018-03-21T15:53:34.202Z,35.60
2018-03-21T15:56:01.884Z,35.60
2018-03-21T15:58:29.498Z,36.10
2018-03-21T16:00:57.038Z,37.30
2018-03-21T16:03:25.401Z,37.80
2018-03-21T16:05:52.949Z,37.80
2018-03-21T16:08:21.265Z,38.10
2018-03-21T16:10:49.895Z,38.70
2018-03-21T16:13:17.436Z,38.60
2018-03-21T16:15:45.006Z,38.80
2018-03-21T16:18:12.595Z,40.10
2018-03-21T16:20:40.129Z,38.60
2018-03-21T16:23:07.717Z,38.80
2018-03-21T16:25:36.077Z,39.00
2018-03-21T16:28:03.619Z,39.00
2018-03-21T16:30:31.197Z,39.50
2018-03-21T16:32:59.056Z,39.60
2018-03-21T16:35:26.597Z,40.20
2018-03-21T16:37:54.152Z,40.40
2018-03-21T16:40:21.924Z,40.50
2018-03-21T16:42:49.676Z,40.90
2018-03-21T16:45:17.238Z,41.20
2018-03-21T16:47:44.821Z,41.30
2018-03-21T16:50:12.414Z,41.80
2018-03-21T16:52:39.953Z,42.20
2018-03-21T16:55:07.809Z,42.80
2018-03-21T16:57:35.359Z,42.10
2018-03-21T17:00:03.134Z,42.50
2018-03-21T17:02:30.712Z,43.10
2018-03-21T17:04:58.257Z,43.20
2018-03-21T17:07:26.573Z,44.30
2018-03-21T17:09:54.933Z,44.80
2018-03-21T17:12:22.514Z,45.30
2018-03-21T17:14:50.830Z,45.20
2018-03-21T17:17:18.438Z,45.20
2018-03-21T17:19:46.751Z,45.50
2018-03-21T17:22:14.294Z,45.50
2018-03-21T17:24:42.011Z,45.60
2018-03-21T17:27:09.545Z,46.50
2018-03-21T17:29:37.085Z,46.70
2018-03-21T17:32:04.784Z,46.30
2018-03-21T17:34:32.324Z,46.10
2018-03-21T17:37:00.070Z,46.90
2018-03-21T17:39:27.978Z,47.00
2018-03-21T17:41:55.523Z,47.00
2018-03-21T17:44:23.127Z,46.80
2018-03-21T17:46:50.995Z,47.30
2018-03-21T17:49:19.313Z,48.60
2018-03-21T17:51:46.859Z,48.50
2018-03-21T17:54:14.461Z,48.00
2018-03-21T17:56:42.004Z,48.00
2018-03-21T17:59:09.548Z,50.10
2018-03-21T18:01:37.163Z,49.00
2018-03-21T18:04:05.594Z,49.80
2018-03-21T18:06:33.208Z,49.80
2018-03-21T18:09:00.758Z,49.90
2018-03-21T18:11:29.092Z,50.70
2018-03-21T18:13:56.689Z,50.30
2018-03-21T18:16:24.231Z,51.10
2018-03-21T18:18:51.803Z,50.90
2018-03-21T18:21:19.398Z,50.40
2018-03-21T18:23:47.122Z,50.70
2018-03-21T18:26:14.665Z,51.20
2018-03-21T18:28:42.455Z,51.60
2018-03-21T18:31:09.989Z,51.60
2018-03-21T18:33:37.534Z,51.50
2018-03-21T18:36:05.135Z,52.80
2018-03-21T18:38:32.711Z,51.80
2018-03-21T18:41:01.034Z,52.00
2018-03-21T18:43:28.638Z,51.40
2018-03-21T18:45:57.146Z,51.70
2018-03-21T18:48:24.702Z,51.70
2018-03-21T18:50:52.250Z,51.70
2018-03-21T18:53:20.582Z,52.10
2018-03-21T18:55:48.195Z,52.00
2018-03-21T18:58:16.512Z,52.80
2018-03-21T19:00:44.070Z,52.70
2018-03-21T19:03:11.985Z,53.70
2018-03-21T19:05:40.334Z,54.50
2018-03-21T19:08:07.890Z,54.00
2018-03-21T19:10:35.496Z,53.60
2018-03-21T19:13:03.041Z,54.90
2018-03-21T19:15:30.581Z,54.60
2018-03-21T19:17:58.348Z,56.00
2018-03-21T19:20:25.883Z,55.80
2018-03-21T19:22:53.429Z,55.60
2018-03-21T19:25:21.022Z,55.10
2018-03-21T19:27:48.844Z,55.20
2018-03-21T19:30:16.389Z,56.30
2018-03-21T19:32:44.069Z,56.80
2018-03-21T19:35:11.771Z,56.00
2018-03-21T19:37:39.318Z,56.00
2018-03-21T19:40:06.866Z,55.50
2018-03-21T19:42:34.458Z,55.60
2018-03-21T19:45:02.016Z,56.20
2018-03-21T19:47:29.558Z,56.60
2018-03-21T19:49:57.337Z,56.90
2018-03-21T19:52:24.881Z,56.70
2018-03-21T19:54:52.434Z,56.60
2018-03-21T19:57:20.137Z,56.90
2018-03-21T19:59:47.702Z,57.00
2018-03-21T20:02:15.293Z,57.50
2018-03-21T20:04:42.877Z,57.40
2018-03-21T20:07:10.486Z,57.10
2018-03-21T20:09:38.191Z,57.80
2018-03-21T20:12:05.752Z,57.90
2018-03-21T20:14:33.570Z,58.50
2018-03-21T20:17:01.161Z,58.70
2018-03-21T20:19:28.697Z,58.70
2018-03-21T20:21:57.009Z,59.40
2018-03-21T20:24:24.614Z,59.40
2018-03-21T20:26:52.479Z,60.00
2018-03-21T20:29:20.032Z,59.90
2018-03-21T20:31:48.366Z,60.00
2018-03-21T20:34:15.985Z,60.00
2018-03-21T20:36:43.822Z,60.20
2018-03-21T20:39:11.374Z,61.30
2018-03-21T20:41:39.028Z,61.40
2018-03-21T20:44:06.605Z,61.10
2018-03-21T20:46:34.166Z,61.20
2018-03-21T20:49:01.717Z,61.20
2018-03-21T20:51:29.593Z,61.20
2018-03-21T20:53:57.146Z,61.50
2018-03-21T20:56:25.047Z,61.50
2018-03-21T20:58:52.841Z,61.70
2018-03-21T21:01:20.518Z,61.90
2018-03-21T21:03:48.417Z,62.40
2018-03-21T21:06:15.991Z,62.40
2018-03-21T21:08:43.550Z,63.20
2018-03-21T21:11:11.105Z,62.90
2018-03-21T21:13:38.682Z,63.10
2018-03-21T21:16:06.221Z,63.40
2018-03-21T21:18:33.775Z,63.80
2018-03-21T21:21:01.513Z,63.70
2018-03-21T21:23:29.061Z,64.20
2018-03-21T21:25:56.614Z,64.10
2018-03-21T21:28:24.272Z,64.40
2018-03-21T21:30:51.894Z,64.20
2018-03-21T21:33:19.441Z,64.50
2018-03-21T21:35:47.418Z,64.90
2018-03-21T21:38:14.979Z,64.60
2018-03-21T21:40:42.522Z,65.70
2018-03-21T21:43:10.500Z,66.00
2018-03-21T21:45:38.048Z,66.90
2018-03-21T21:48:05.597Z,67.00
2018-03-21T21:50:33.199Z,67.20
2018-03-21T21:53:00.753Z,66.10
2018-03-21T21:55:28.325Z,67.20
2018-03-21T21:57:56.685Z,66.30
2018-03-21T22:00:24.226Z,66.20
2018-03-21T22:02:51.772Z,66.40
2018-03-21T22:05:19.562Z,66.60
2018-03-21T22:07:47.105Z,66.40
2018-03-21T22:10:14.660Z,66.50
2018-03-21T22:12:42.237Z,66.70
2018-03-21T22:15:09.773Z,66.50
2018-03-21T22:17:37.318Z,66.70
2018-03-21T22:20:05.123Z,66.60
2018-03-21T22:22:32.696Z,67.00
2018-03-21T22:25:00.862Z,67.20
2018-03-21T22:27:28.835Z,67.90
2018-03-21T22:29:56.373Z,67.70
2018-03-21T22:32:23.918Z,67.90
2018-03-21T22:34:51.576Z,67.60
2018-03-21T22:37:19.117Z,67.70
2018-03-21T22:39:46.667Z,67.70
2018-03-21T22:42:15.141Z,68.10
2018-03-21T22:44:43.447Z,69.30
2018-03-21T22:47:11.008Z,68.70
2018-03-21T22:49:38.571Z,68.80
2018-03-21T22:52:06.110Z,68.90
2018-03-21T22:54:33.668Z,68.80
2018-03-21T22:57:01.491Z,68.60
2018-03-21T22:59:29.585Z,69.30
2018-03-21T23:01:57.930Z,69.00
2018-03-21T23:04:25.673Z,69.00
2018-03-21T23:06:53.220Z,69.40
2018-03-21T23:09:20.762Z,69.50
2018-03-21T23:11:48.486Z,69.40
2018-03-21T23:14:16.027Z,69.80
2018-03-21T23:16:43.572Z,69.70
2018-03-21T23:19:11.305Z,69.70
2018-03-21T23:21:39.624Z,69.70
2018-03-21T23:24:07.170Z,69.70
2018-03-21T23:26:34.738Z,69.70
2018-03-21T23:29:02.287Z,70.00
2018-03-21T23:31:29.899Z,70.00
2018-03-21T23:33:57.487Z,70.00
2018-03-21T23:36:25.275Z,70.20
2018-03-21T23:38:52.822Z,70.30
2018-03-21T23:41:21.198Z,70.40
2018-03-21T23:43:49.179Z,70.60
2018-03-21T23:46:16.848Z,70.50
2018-03-21T23:48:44.594Z,70.60
2018-03-21T23:51:12.149Z,71.40
2018-03-21T23:53:39.966Z,71.20
2018-03-21T23:56:07.693Z,71.70
2018-03-21T23:58:35.255Z,71.90
